createdAt,value
2019-02-23T00:00:31.379Z,102334.55
2019-02-23T00:03:00.420Z,102341.33
2019-02-23T00:05:29.251Z,102353.76
2019-02-23T00:07:58.260Z,102352.36
2019-02-23T00:10:27.262Z,102356.23
2019-02-23T00:12:56.261Z,102357.33
2019-02-23T00:15:25.175Z,102364.19
2019-02-23T00:17:54.213Z,102363.70
2019-02-23T00:20:23.215Z,102365.52
2019-02-23T00:22:52.176Z,102360.55
2019-02-23T00:25:21.134Z,102367.91
2019-02-23T00:27:50.063Z,102363.50
2019-02-23T00:30:19.261Z,102365.20
2019-02-23T00:32:48.292Z,102374.36
2019-02-23T00:35:17.375Z,102366.61
2019-02-23T00:37:46.377Z,102371.30
2019-02-23T00:40:15.455Z,102376.45
2019-02-23T00:42:44.374Z,102382.73
2019-02-23T00:45:13.456Z,102392.97
2019-02-23T00:47:42.374Z,102392.28
2019-02-23T00:50:11.336Z,102396.16
2019-02-23T00:52:40.375Z,102402.02
2019-02-23T00:55:09.697Z,102394.25
2019-02-23T00:57:45.693Z,102391.78
2019-02-23T01:03:09.333Z,102391.48
2019-02-23T01:05:38.255Z,102388.20
2019-02-23T01:08:07.373Z,102392.67
2019-02-23T01:10:36.453Z,102384.73
2019-02-23T01:13:05.575Z,102388.48
2019-02-23T01:15:34.660Z,102394.55
2019-02-23T01:18:03.841Z,102392.87
2019-02-23T01:20:32.892Z,102395.27
2019-02-23T01:23:01.772Z,102384.73
2019-02-23T01:25:30.854Z,102390.29
2019-02-23T01:27:59.892Z,102381.64
2019-02-23T01:30:29.214Z,102386.11
2019-02-23T01:32:58.254Z,102396.23
2019-02-23T01:35:27.341Z,102397.62
2019-02-23T01:37:56.306Z,102397.93
2019-02-23T01:40:25.333Z,102391.46
2019-02-23T01:42:54.333Z,102402.97
2019-02-23T01:45:23.373Z,102403.45
2019-02-23T01:47:52.372Z,102405.25
2019-02-23T01:50:21.454Z,102408.33
2019-02-23T01:52:50.575Z,102413.80
2019-02-23T01:55:19.615Z,102401.80
2019-02-23T01:57:48.534Z,102405.86
2019-02-23T02:00:18.614Z,102413.23
2019-02-23T02:02:49.133Z,102411.00
2019-02-23T02:05:18.383Z,102410.27
2019-02-23T02:07:47.334Z,102412.13
2019-02-23T02:10:17.695Z,102408.02
2019-02-23T02:12:46.774Z,102406.55
2019-02-23T02:15:16.535Z,102403.69
2019-02-23T02:17:45.494Z,102402.86
2019-02-23T02:20:14.694Z,102398.47
2019-02-23T02:22:43.737Z,102393.84
2019-02-23T02:25:12.893Z,102387.44
2019-02-23T02:27:41.981Z,102400.77
2019-02-23T02:30:12.069Z,102393.89
2019-02-23T02:32:41.012Z,102394.77
2019-02-23T02:35:11.214Z,102392.52
2019-02-23T02:37:40.267Z,102395.41
2019-02-23T02:40:10.333Z,102391.48
2019-02-23T02:42:39.414Z,102391.80
2019-02-23T02:45:10.549Z,102384.25
2019-02-23T02:47:39.693Z,102387.30
2019-02-23T02:50:23.335Z,102384.42
2019-02-23T02:52:40.797Z,102387.94
2019-02-23T02:55:10.317Z,102374.86
2019-02-23T02:57:39.277Z,102365.41
2019-02-23T03:00:11.632Z,102360.12
2019-02-23T03:02:40.713Z,102354.38
2019-02-23T03:05:10.340Z,102362.89
2019-02-23T03:07:39.198Z,102368.11
2019-02-23T03:10:08.288Z,102364.86
2019-02-23T03:12:37.265Z,102360.94
2019-02-23T03:15:08.097Z,102362.02
2019-02-23T03:17:37.000Z,102365.65
2019-02-23T03:20:07.962Z,102365.05
2019-02-23T03:22:36.817Z,102370.77
2019-02-23T03:25:07.024Z,102363.08
2019-02-23T03:27:35.943Z,102364.11
2019-02-23T03:30:06.664Z,102378.16
2019-02-23T03:32:35.565Z,102378.16
2019-02-23T03:35:04.751Z,102370.91
2019-02-23T03:37:33.587Z,102366.48
2019-02-23T03:40:02.438Z,102365.18
2019-02-23T03:42:31.323Z,102371.79
2019-02-23T03:45:00.405Z,102370.80
2019-02-23T03:47:29.335Z,102365.67
2019-02-23T03:49:58.186Z,102372.87
2019-02-23T03:52:27.074Z,102381.41
2019-02-23T03:54:56.151Z,102381.41
2019-02-23T03:57:25.041Z,102372.11
2019-02-23T03:59:53.884Z,102373.77
2019-02-23T04:02:22.741Z,102374.07
2019-02-23T04:04:51.639Z,102375.94
2019-02-23T04:07:20.514Z,102381.27
2019-02-23T04:09:49.381Z,102382.69
2019-02-23T04:12:18.314Z,102380.56
2019-02-23T04:14:47.175Z,102384.52
2019-02-23T04:17:16.061Z,102376.78
2019-02-23T04:19:44.970Z,102370.43
2019-02-23T04:22:13.821Z,102375.36
2019-02-23T04:24:42.755Z,102371.05
2019-02-23T04:27:11.667Z,102366.84
2019-02-23T04:29:40.533Z,102371.36
2019-02-23T04:32:09.395Z,102358.74
2019-02-23T04:34:38.310Z,102368.92
2019-02-23T04:37:07.202Z,102377.97
2019-02-23T04:39:36.075Z,102378.43
2019-02-23T04:42:05.027Z,102369.58
2019-02-23T04:44:33.887Z,102371.05
2019-02-23T04:47:02.870Z,102377.50
2019-02-23T04:49:31.776Z,102375.45
2019-02-23T04:52:00.635Z,102375.45
2019-02-23T04:54:29.511Z,102378.96
2019-02-23T04:56:58.440Z,102393.18
2019-02-23T04:59:27.314Z,102388.55
2019-02-23T05:01:56.980Z,102387.91
2019-02-23T05:04:25.899Z,102372.80
2019-02-23T05:06:54.751Z,102376.22
2019-02-23T05:09:23.626Z,102369.78
2019-02-23T05:11:52.541Z,102367.26
2019-02-23T05:14:21.408Z,102360.87
2019-02-23T05:16:50.274Z,102355.52
2019-02-23T05:19:19.215Z,102375.56
2019-02-23T05:21:48.071Z,102375.56
2019-02-23T05:24:16.949Z,102350.61
2019-02-23T05:26:45.857Z,102350.61
2019-02-23T05:29:14.721Z,102341.77
2019-02-23T05:31:43.590Z,102345.20
2019-02-23T05:34:12.492Z,102343.13
2019-02-23T05:36:41.379Z,102348.83
2019-02-23T05:39:10.319Z,102357.83
2019-02-23T05:41:39.296Z,102365.39
2019-02-23T05:44:08.175Z,102369.55
2019-02-23T05:46:37.025Z,102389.30
2019-02-23T05:49:05.935Z,102400.67
2019-02-23T05:51:38.764Z,102392.00
2019-02-23T05:54:05.469Z,102386.20
2019-02-23T05:56:34.380Z,102382.53
2019-02-23T05:59:03.297Z,102372.77
2019-02-23T06:01:32.189Z,102373.09
2019-02-23T06:04:01.105Z,102371.66
2019-02-23T06:06:29.970Z,102371.66
2019-02-23T06:08:58.850Z,102394.64
2019-02-23T06:11:27.886Z,102406.80
2019-02-23T06:13:56.725Z,102397.44
2019-02-23T06:16:25.581Z,102408.08
2019-02-23T06:18:54.490Z,102426.19
2019-02-23T06:21:23.346Z,102426.47
2019-02-23T06:23:52.222Z,102429.52
2019-02-23T06:26:21.204Z,102431.39
2019-02-23T06:28:50.077Z,102434.16
2019-02-23T06:31:19.034Z,102428.38
2019-02-23T06:33:47.958Z,102428.05
2019-02-23T06:36:16.814Z,102412.33
2019-02-23T06:38:45.771Z,102412.33
2019-02-23T06:41:14.676Z,102430.41
2019-02-23T06:43:43.528Z,102436.81
2019-02-23T06:46:12.414Z,102447.98
2019-02-23T06:48:41.328Z,102463.03
2019-02-23T06:51:10.182Z,102473.87
2019-02-23T06:53:39.031Z,102478.23
2019-02-23T06:56:07.971Z,102479.34
2019-02-23T06:58:36.890Z,102489.80
2019-02-23T07:01:05.801Z,102471.52
2019-02-23T07:03:34.739Z,102456.84
2019-02-23T07:06:03.654Z,102455.82
2019-02-23T07:08:32.515Z,102449.77
2019-02-23T07:11:01.430Z,102447.84
2019-02-23T07:13:30.316Z,102460.28
2019-02-23T07:15:59.168Z,102466.50
2019-02-23T07:18:28.100Z,102468.96
2019-02-23T07:20:57.003Z,102466.80
2019-02-23T07:23:25.874Z,102463.30
2019-02-23T07:25:54.789Z,102454.03
2019-02-23T07:28:23.660Z,102457.06
2019-02-23T07:30:52.531Z,102464.01
2019-02-23T07:33:32.413Z,102478.20
2019-02-23T07:35:52.039Z,102486.38
2019-02-23T07:38:20.979Z,102497.52
2019-02-23T07:40:49.890Z,102485.61
2019-02-23T07:43:18.763Z,102477.95
2019-02-23T07:45:47.630Z,102477.98
2019-02-23T07:48:16.537Z,102471.39
2019-02-23T07:50:45.385Z,102468.87
2019-02-23T07:53:14.250Z,102471.88
2019-02-23T07:55:43.260Z,102471.23
2019-02-23T07:58:12.115Z,102470.27
2019-02-23T08:00:41.193Z,102473.66
2019-02-23T08:03:10.126Z,102482.67
2019-02-23T08:05:38.984Z,102491.82
2019-02-23T08:08:07.850Z,102494.59
2019-02-23T08:10:36.781Z,102510.33
2019-02-23T08:13:05.744Z,102513.58
2019-02-23T08:15:34.614Z,102520.78
2019-02-23T08:18:03.545Z,102523.08
2019-02-23T08:20:32.409Z,102512.92
2019-02-23T08:23:01.276Z,102521.19
2019-02-23T08:25:30.179Z,102521.77
2019-02-23T08:27:59.034Z,102526.38
2019-02-23T08:30:27.881Z,102532.73
2019-02-23T08:32:56.784Z,102537.91
2019-02-23T08:35:25.645Z,102546.11
2019-02-23T08:37:54.505Z,102553.47
2019-02-23T08:40:23.424Z,102554.79
2019-02-23T08:42:52.285Z,102551.59
2019-02-23T08:45:21.141Z,102541.98
2019-02-23T08:47:50.038Z,102530.28
2019-02-23T08:50:18.906Z,102518.05
2019-02-23T08:52:49.541Z,102498.77
2019-02-23T08:55:18.489Z,102496.25
2019-02-23T08:57:47.349Z,102493.01
2019-02-23T09:00:18.027Z,102480.73
2019-02-23T09:02:47.244Z,102482.77
2019-02-23T09:05:16.167Z,102489.33
2019-02-23T09:07:45.015Z,102498.69
2019-02-23T09:10:14.939Z,102488.76
2019-02-23T09:12:43.890Z,102476.08
2019-02-23T09:15:13.152Z,102475.47
2019-02-23T09:17:42.056Z,102496.02
2019-02-23T09:20:12.413Z,102494.87
2019-02-23T09:22:41.286Z,102490.69
2019-02-23T09:25:11.515Z,102483.58
2019-02-23T09:27:40.365Z,102479.75
2019-02-23T09:30:14.207Z,102490.79
2019-02-23T09:32:42.350Z,102493.97
2019-02-23T09:35:11.259Z,102487.02
2019-02-23T09:37:40.132Z,102483.43
2019-02-23T09:40:12.086Z,102480.66
2019-02-23T09:42:41.159Z,102461.08
2019-02-23T09:45:12.035Z,102475.26
2019-02-23T09:47:41.044Z,102481.03
2019-02-23T09:50:10.310Z,102486.22
2019-02-23T09:52:39.171Z,102486.18
2019-02-23T09:55:09.303Z,102468.75
2019-02-23T09:57:38.226Z,102463.94
2019-02-23T10:00:12.341Z,102453.55
2019-02-23T10:02:41.452Z,102459.76
2019-02-23T10:05:10.820Z,102465.48
2019-02-23T10:07:39.695Z,102462.93
2019-02-23T10:10:10.726Z,102458.47
2019-02-23T10:12:39.605Z,102461.11
2019-02-23T10:15:10.682Z,102458.47
2019-02-23T10:17:39.571Z,102462.66
2019-02-23T10:20:13.464Z,102456.35
2019-02-23T10:22:42.330Z,102445.19
2019-02-23T10:25:11.920Z,102448.70
2019-02-23T10:27:40.871Z,102445.92
2019-02-23T10:30:14.086Z,102443.31
2019-02-23T10:32:43.050Z,102440.98
2019-02-23T10:35:14.064Z,102442.09
2019-02-23T10:37:42.970Z,102461.45
2019-02-23T10:40:14.960Z,102466.00
2019-02-23T10:42:43.925Z,102437.20
2019-02-23T10:45:13.574Z,102426.62
2019-02-23T10:47:42.643Z,102430.23
2019-02-23T10:50:13.894Z,102422.75
2019-02-23T10:52:42.755Z,102414.26
2019-02-23T10:55:15.748Z,102419.05
2019-02-23T10:57:44.605Z,102408.92
2019-02-23T11:00:18.206Z,102405.89
2019-02-23T11:02:47.205Z,102403.83
2019-02-23T11:05:16.398Z,102395.63
2019-02-23T11:07:45.288Z,102385.66
2019-02-23T11:10:15.195Z,102384.03
2019-02-23T11:12:44.251Z,102382.44
2019-02-23T11:15:14.515Z,102375.28
2019-02-23T11:17:43.611Z,102368.19
2019-02-23T11:20:12.876Z,102362.28
2019-02-23T11:22:41.745Z,102349.97
2019-02-23T11:25:11.852Z,102339.20
2019-02-23T11:27:40.985Z,102339.19
2019-02-23T11:30:16.549Z,102337.91
2019-02-23T11:32:45.630Z,102339.68
2019-02-23T11:35:17.398Z,102342.83
2019-02-23T11:37:46.817Z,102350.17
2019-02-23T11:40:16.739Z,102349.03
2019-02-23T11:42:45.609Z,102335.18
2019-02-23T11:45:14.467Z,102334.20
2019-02-23T11:47:43.407Z,102335.97
2019-02-23T11:50:15.673Z,102333.53
2019-02-23T11:52:44.535Z,102333.37
2019-02-23T11:55:13.851Z,102324.66
2019-02-23T11:57:42.856Z,102332.29
2019-02-23T12:00:15.955Z,102336.61
2019-02-23T12:02:51.986Z,102327.34
2019-02-23T12:05:15.442Z,102332.66
2019-02-23T12:07:44.308Z,102319.52
2019-02-23T12:10:16.775Z,102328.20
2019-02-23T12:12:45.652Z,102322.95
2019-02-23T12:15:14.928Z,102314.55
2019-02-23T12:17:43.941Z,102307.33
2019-02-23T12:20:13.066Z,102298.80
2019-02-23T12:22:42.030Z,102288.40
2019-02-23T12:25:15.095Z,102277.09
2019-02-23T12:27:41.631Z,102272.77
2019-02-23T12:30:11.699Z,102271.89
2019-02-23T12:32:40.613Z,102277.09
2019-02-23T12:35:11.211Z,102260.47
2019-02-23T12:37:40.169Z,102264.58
2019-02-23T12:40:10.485Z,102272.19
2019-02-23T12:42:39.359Z,102279.36
2019-02-23T12:45:16.340Z,102274.95
2019-02-23T12:47:45.634Z,102268.70
2019-02-23T12:50:14.890Z,102275.44
2019-02-23T12:52:43.840Z,102274.30
2019-02-23T12:55:13.047Z,102263.87
2019-02-23T12:57:42.001Z,102282.42
2019-02-23T13:00:18.491Z,102273.57
2019-02-23T13:02:47.650Z,102276.33
2019-02-23T13:05:16.799Z,102282.17
2019-02-23T13:07:45.830Z,102286.64
2019-02-23T13:10:15.044Z,102283.72
2019-02-23T13:13:12.700Z,102281.52
2019-02-23T13:15:56.740Z,102280.24
2019-02-23T13:18:34.355Z,102283.19
2019-02-23T13:21:15.349Z,102285.64
2019-02-23T13:23:50.184Z,102284.92
2019-02-23T13:26:33.784Z,102283.59
2019-02-23T13:29:11.486Z,102276.64
2019-02-23T13:31:55.214Z,102271.09
2019-02-23T13:34:32.995Z,102270.13
2019-02-23T13:37:29.859Z,102257.26
2019-02-23T13:40:34.594Z,102246.13
2019-02-23T13:43:15.467Z,102251.05
2019-02-23T13:45:52.835Z,102256.92
2019-02-23T13:48:24.595Z,102258.89
2019-02-23T13:51:14.945Z,102267.23
2019-02-23T13:54:10.979Z,102271.53
2019-02-23T13:56:54.767Z,102263.95
2019-02-23T13:59:42.820Z,102263.09
2019-02-23T14:02:35.068Z,102264.94
2019-02-23T14:05:24.690Z,102266.11
2019-02-23T14:08:28.244Z,102269.39
2019-02-23T14:11:18.276Z,102271.79
2019-02-23T14:14:02.016Z,102282.70
2019-02-23T14:16:42.921Z,102294.77
2019-02-23T14:19:32.759Z,102276.84
2019-02-23T14:22:19.641Z,102286.59
2019-02-23T14:25:10.836Z,102283.33
2019-02-23T14:27:59.248Z,102293.44
2019-02-23T14:30:52.274Z,102284.22
2019-02-23T14:33:32.866Z,102278.67
2019-02-23T14:36:13.470Z,102274.28
2019-02-23T14:38:56.750Z,102271.72
2019-02-23T14:41:43.930Z,102267.46
2019-02-23T14:44:24.957Z,102268.52
2019-02-23T14:47:27.362Z,102265.09
2019-02-23T14:50:17.219Z,102260.27
2019-02-23T14:52:58.281Z,102256.66
2019-02-23T14:55:51.381Z,102263.20
2019-02-23T14:58:35.034Z,102262.76
2019-02-23T15:01:06.978Z,102260.00
2019-02-23T15:03:38.739Z,102265.91
2019-02-23T15:06:22.857Z,102265.54
2019-02-23T15:08:52.496Z,102270.14
2019-02-23T15:11:40.783Z,102276.95
2019-02-23T15:14:18.681Z,102282.89
2019-02-23T15:17:13.614Z,102277.88
2019-02-23T15:20:08.030Z,102274.18
2019-02-23T15:22:54.208Z,102261.73
2019-02-23T15:25:34.846Z,102270.16
2019-02-23T15:28:37.206Z,102254.89
2019-02-23T15:31:16.701Z,102253.59
2019-02-23T15:34:06.984Z,102262.19
2019-02-23T15:37:00.597Z,102262.92
2019-02-23T15:39:37.008Z,102248.87
2019-02-23T15:42:23.700Z,102235.10
2019-02-23T15:45:14.088Z,102223.20
2019-02-23T15:47:45.990Z,102218.42
2019-02-23T15:50:15.170Z,102214.14
2019-02-23T15:52:44.455Z,102212.84
2019-02-23T15:55:25.382Z,102202.31
2019-02-23T15:57:44.388Z,102197.24
2019-02-23T16:00:13.710Z,102206.95
2019-02-23T16:02:42.883Z,102218.42
2019-02-23T16:05:12.048Z,102216.86
2019-02-23T16:07:41.280Z,102221.80
2019-02-23T16:10:11.743Z,102217.09
2019-02-23T16:12:40.929Z,102212.94
2019-02-23T16:15:11.825Z,102216.14
2019-02-23T16:17:40.885Z,102222.17
2019-02-23T16:20:10.056Z,102225.36
2019-02-23T16:22:39.148Z,102221.23
2019-02-23T16:25:09.251Z,102227.10
2019-02-23T16:27:38.312Z,102218.77
2019-02-23T16:30:10.315Z,102207.75
2019-02-23T16:32:39.378Z,102210.98
2019-02-23T16:35:09.049Z,102204.45
2019-02-23T16:37:39.255Z,102197.40
2019-02-23T16:40:08.838Z,102206.70
2019-02-23T16:42:38.080Z,102214.97
2019-02-23T16:45:09.381Z,102208.53
2019-02-23T16:47:38.605Z,102201.08
2019-02-23T16:50:08.912Z,102204.00
2019-02-23T16:52:38.175Z,102198.47
2019-02-23T16:55:08.134Z,102206.92
2019-02-23T16:57:37.285Z,102214.17
2019-02-23T17:00:09.101Z,102217.35
2019-02-23T17:02:38.268Z,102211.71
2019-02-23T17:05:08.610Z,102187.49
2019-02-23T17:07:37.815Z,102191.52
2019-02-23T17:10:07.982Z,102196.20
2019-02-23T17:12:37.135Z,102200.27
2019-02-23T17:15:10.490Z,102198.12
2019-02-23T17:17:38.629Z,102198.30
2019-02-23T17:20:07.801Z,102195.95
2019-02-23T17:22:37.011Z,102194.97
2019-02-23T17:25:07.063Z,102188.50
2019-02-23T17:27:37.811Z,102180.56
2019-02-23T17:30:09.020Z,102186.66
2019-02-23T17:32:38.204Z,102199.83
2019-02-23T17:35:07.776Z,102204.91
2019-02-23T17:37:36.991Z,102203.31
2019-02-23T17:40:07.758Z,102195.33
2019-02-23T17:42:36.915Z,102201.25
2019-02-23T17:45:09.250Z,102197.99
2019-02-23T17:47:38.420Z,102198.56
2019-02-23T17:50:08.885Z,102195.73
2019-02-23T17:52:38.085Z,102190.86
2019-02-23T17:55:08.655Z,102190.87
2019-02-23T17:57:37.735Z,102197.46
2019-02-23T18:00:09.670Z,102189.76
2019-02-23T18:02:38.838Z,102183.53
2019-02-23T18:05:07.991Z,102181.70
2019-02-23T18:07:37.210Z,102180.83
2019-02-23T18:10:07.385Z,102177.67
2019-02-23T18:12:36.546Z,102180.88
2019-02-23T18:15:08.272Z,102187.56
2019-02-23T18:17:37.570Z,102182.83
2019-02-23T18:20:09.455Z,102194.20
2019-02-23T18:22:38.695Z,102183.90
2019-02-23T18:25:09.255Z,102171.64
2019-02-23T18:27:38.410Z,102157.52
2019-02-23T18:30:14.097Z,102152.22
2019-02-23T18:32:42.481Z,102149.09
2019-02-23T18:35:11.715Z,102148.91
2019-02-23T18:37:40.931Z,102146.46
2019-02-23T18:40:10.100Z,102147.49
2019-02-23T18:42:39.281Z,102141.70
2019-02-23T18:45:09.293Z,102132.31
2019-02-23T18:47:38.470Z,102128.47
2019-02-23T18:50:08.645Z,102120.77
2019-02-23T18:52:37.858Z,102118.77
2019-02-23T18:55:08.520Z,102134.67
2019-02-23T18:57:37.690Z,102130.31
2019-02-23T19:00:09.984Z,102140.64
2019-02-23T19:02:39.166Z,102150.91
2019-02-23T19:05:11.032Z,102157.34
2019-02-23T19:07:40.348Z,102147.03
2019-02-23T19:10:12.118Z,102151.80
2019-02-23T19:12:41.275Z,102151.08
2019-02-23T19:15:14.870Z,102144.27
2019-02-23T19:17:43.186Z,102148.31
2019-02-23T19:20:14.212Z,102145.25
2019-02-23T19:22:43.340Z,102143.59
2019-02-23T19:25:12.810Z,102145.69
2019-02-23T19:27:41.958Z,102146.39
2019-02-23T19:30:15.031Z,102136.80
2019-02-23T19:32:44.205Z,102132.58
2019-02-23T19:35:13.370Z,102125.62
2019-02-23T19:37:42.603Z,102122.78
2019-02-23T19:40:11.775Z,102119.72
2019-02-23T19:42:40.955Z,102125.89
2019-02-23T19:45:12.841Z,102118.34
2019-02-23T19:47:42.915Z,102117.62
2019-02-23T19:50:27.439Z,102122.23
2019-02-23T19:52:56.615Z,102113.26
2019-02-23T19:55:25.794Z,102121.27
2019-02-23T19:57:55.017Z,102129.73
2019-02-23T20:00:24.194Z,102123.56
2019-02-23T20:02:53.355Z,102122.64
2019-02-23T20:05:22.574Z,102129.58
2019-02-23T20:07:52.748Z,102133.26
2019-02-23T20:10:21.961Z,102130.48
2019-02-23T20:12:51.086Z,102129.95
2019-02-23T20:15:20.253Z,102122.40
2019-02-23T20:17:49.425Z,102118.83
2019-02-23T20:20:18.695Z,102123.67
2019-02-23T20:22:47.760Z,102121.84
2019-02-23T20:25:16.990Z,102122.91
2019-02-23T20:27:46.121Z,102125.95
2019-02-23T20:30:15.285Z,102141.59
2019-02-23T20:32:44.477Z,102133.59
2019-02-23T20:35:13.697Z,102135.64
2019-02-23T20:37:42.861Z,102142.58
2019-02-23T20:40:12.055Z,102141.61
2019-02-23T20:42:41.275Z,102147.77
2019-02-23T20:45:10.615Z,102146.89
2019-02-23T20:47:39.861Z,102146.66
2019-02-23T20:50:10.861Z,102139.20
2019-02-23T20:52:40.034Z,102129.17
2019-02-23T20:55:09.674Z,102141.66
2019-02-23T20:57:38.886Z,102140.19
2019-02-23T21:00:10.460Z,102144.24
2019-02-23T21:02:39.510Z,102145.66
2019-02-23T21:05:13.923Z,102139.84
2019-02-23T21:07:43.093Z,102135.94
2019-02-23T21:10:12.236Z,102132.30
2019-02-23T21:12:41.520Z,102136.20
2019-02-23T21:15:11.897Z,102140.08
2019-02-23T21:17:41.055Z,102134.53
2019-02-23T21:20:11.365Z,102137.12
2019-02-23T21:22:40.518Z,102137.77
2019-02-23T21:25:10.195Z,102138.48
2019-02-23T21:27:39.445Z,102139.21
2019-02-23T21:30:10.566Z,102138.46
2019-02-23T21:32:39.710Z,102126.20
2019-02-23T21:35:09.533Z,102126.02
2019-02-23T21:37:38.623Z,102128.84
2019-02-23T21:40:12.180Z,102123.61
2019-02-23T21:42:41.634Z,102121.20
2019-02-23T21:45:10.690Z,102130.91
2019-02-23T21:47:39.866Z,102118.75
2019-02-23T21:50:12.008Z,102131.13
2019-02-23T21:52:41.162Z,102133.67
2019-02-23T21:55:10.223Z,102131.97
2019-02-23T21:57:39.545Z,102134.16
2019-02-23T22:00:10.464Z,102137.12
2019-02-23T22:02:39.434Z,102137.84
2019-02-23T22:05:12.456Z,102131.16
2019-02-23T22:07:39.365Z,102131.06
2019-02-23T22:10:09.541Z,102128.39
2019-02-23T22:12:38.801Z,102135.59
2019-02-23T22:15:08.400Z,102137.19
2019-02-23T22:17:37.406Z,102128.33
2019-02-23T22:20:07.517Z,102125.21
2019-02-23T22:22:36.549Z,102131.45
2019-02-23T22:25:05.829Z,102135.20
2019-02-23T22:27:34.890Z,102139.75
2019-02-23T22:30:03.859Z,102136.93
2019-02-23T22:32:32.797Z,102132.30
2019-02-23T22:35:01.871Z,102133.75
2019-02-23T22:37:30.735Z,102134.34
2019-02-23T22:39:59.599Z,102126.92
2019-02-23T22:42:28.496Z,102127.50
2019-02-23T22:44:57.443Z,102118.19
2019-02-23T22:47:26.326Z,102118.81
2019-02-23T22:49:55.353Z,102124.62
2019-02-23T22:52:24.205Z,102126.94
2019-02-23T22:54:53.074Z,102129.82
2019-02-23T22:57:21.993Z,102125.16
2019-02-23T22:59:50.841Z,102123.39
2019-02-23T23:02:19.998Z,102134.67
2019-02-23T23:04:48.917Z,102125.93
2019-02-23T23:07:17.788Z,102121.36
2019-02-23T23:09:46.653Z,102120.19
2019-02-23T23:12:15.645Z,102117.48
2019-02-23T23:14:44.523Z,102109.52
2019-02-23T23:17:13.578Z,102107.34
2019-02-23T23:19:42.490Z,102103.02
2019-02-23T23:22:11.484Z,102110.37
2019-02-23T23:24:40.397Z,102108.19
2019-02-23T23:27:09.336Z,102107.70
2019-02-23T23:29:38.199Z,102110.25
2019-02-23T23:32:07.079Z,102108.33
2019-02-23T23:34:36.006Z,102105.44
2019-02-23T23:37:04.945Z,102107.35
2019-02-23T23:39:33.794Z,102099.69
2019-02-23T23:42:02.714Z,102084.63
2019-02-23T23:44:31.607Z,102080.80
2019-02-23T23:47:00.643Z,102077.80
2019-02-23T23:49:29.684Z,102078.75
2019-02-23T23:51:58.551Z,102080.56
2019-02-23T23:54:27.432Z,102076.93
2019-02-23T23:56:56.354Z,102072.77
2019-02-23T23:59:25.277Z,102068.53
